createdAt,value
2022-12-22T00:01:53.368Z,2.60
2022-12-22T00:04:38.878Z,2.50
2022-12-22T00:07:24.620Z,2.50
2022-12-22T00:10:09.877Z,2.60
2022-12-22T00:12:55.568Z,2.60
2022-12-22T00:15:43.158Z,2.60
2022-12-22T00:18:34.828Z,2.60
2022-12-22T00:21:20.562Z,2.60
2022-12-22T00:24:06.366Z,2.60
2022-12-22T00:26:53.392Z,2.60
2022-12-22T00:29:39.301Z,2.60
2022-12-22T00:32:25.682Z,2.60
2022-12-22T00:35:11.912Z,2.60
2022-12-22T00:37:57.507Z,2.60
2022-12-22T00:40:46.184Z,2.60
2022-12-22T00:43:32.215Z,2.60
2022-12-22T00:46:19.166Z,2.60
2022-12-22T00:49:04.897Z,2.60
2022-12-22T00:51:51.049Z,2.60
2022-12-22T00:54:37.665Z,2.60
2022-12-22T00:57:23.641Z,2.60
2022-12-22T01:00:09.246Z,2.60
2022-12-22T01:02:54.474Z,2.70
2022-12-22T01:05:39.841Z,2.70
2022-12-22T01:08:27.847Z,2.60
2022-12-22T01:11:13.576Z,2.60
2022-12-22T01:13:59.097Z,2.60
2022-12-22T01:16:44.792Z,2.60
2022-12-22T01:19:30.477Z,2.60
2022-12-22T01:22:16.441Z,2.50
2022-12-22T01:25:02.327Z,2.50
2022-12-22T01:27:47.912Z,2.50
2022-12-22T01:30:33.395Z,2.60
2022-12-22T01:33:19.394Z,2.60
2022-12-22T01:36:04.656Z,2.60
2022-12-22T01:38:50.151Z,2.60
2022-12-22T01:41:38.428Z,2.60
2022-12-22T01:44:31.946Z,2.60
2022-12-22T01:47:36.678Z,2.60
2022-12-22T01:50:30.190Z,2.70
2022-12-22T01:53:19.798Z,2.70
2022-12-22T01:56:06.107Z,2.70
2022-12-22T01:58:54.194Z,2.70
2022-12-22T02:01:39.895Z,2.60
2022-12-22T02:04:25.196Z,2.70
2022-12-22T02:07:12.291Z,2.70
2022-12-22T02:10:16.921Z,2.70
2022-12-22T02:13:10.964Z,2.70
2022-12-22T02:16:10.007Z,2.70
2022-12-22T02:18:58.672Z,2.80
2022-12-22T02:21:44.826Z,2.80
2022-12-22T02:24:29.975Z,2.80
2022-12-22T02:27:18.240Z,2.70
2022-12-22T02:30:14.711Z,2.70
2022-12-22T02:33:08.885Z,2.70
2022-12-22T02:36:03.039Z,2.70
2022-12-22T02:39:08.806Z,2.70
2022-12-22T02:42:13.279Z,2.70
2022-12-22T02:45:08.229Z,2.70
2022-12-22T02:47:59.624Z,2.60
2022-12-22T02:50:48.696Z,2.60
2022-12-22T02:53:35.627Z,2.60
2022-12-22T02:56:25.813Z,2.50
2022-12-22T02:59:11.772Z,2.50
2022-12-22T03:01:58.589Z,2.50
2022-12-22T03:04:43.898Z,2.60
2022-12-22T03:07:29.592Z,2.50
2022-12-22T03:10:15.060Z,2.50
2022-12-22T03:13:00.636Z,2.50
2022-12-22T03:15:46.860Z,2.50
2022-12-22T03:18:32.304Z,2.50
2022-12-22T03:21:17.926Z,2.50
2022-12-22T03:24:03.314Z,2.40
2022-12-22T03:26:30.303Z,2.40
2022-12-22T03:28:57.131Z,2.40
2022-12-22T03:31:24.002Z,2.50
2022-12-22T03:33:51.192Z,2.40
2022-12-22T03:36:18.098Z,2.50
2022-12-22T03:38:44.993Z,2.40
2022-12-22T03:41:31.811Z,2.50
2022-12-22T03:44:17.357Z,2.50
2022-12-22T03:46:44.745Z,2.50
2022-12-22T03:49:11.964Z,2.50
2022-12-22T03:51:40.648Z,2.50
2022-12-22T03:54:07.969Z,2.60
2022-12-22T03:56:35.401Z,2.60
2022-12-22T03:59:02.775Z,2.60
2022-12-22T04:01:29.798Z,2.60
2022-12-22T04:03:57.210Z,2.60
2022-12-22T04:06:24.295Z,2.70
2022-12-22T04:08:51.275Z,2.60
2022-12-22T04:11:36.713Z,2.60
2022-12-22T04:14:04.363Z,2.70
2022-12-22T04:16:31.772Z,2.70
2022-12-22T04:18:58.878Z,2.60
2022-12-22T04:21:26.129Z,2.60
2022-12-22T04:23:53.110Z,2.60
2022-12-22T04:26:20.787Z,2.70
2022-12-22T04:28:47.894Z,2.70
2022-12-22T04:31:15.000Z,2.70
2022-12-22T04:33:41.914Z,2.70
2022-12-22T04:36:09.745Z,2.70
2022-12-22T04:38:37.037Z,2.70
2022-12-22T04:41:04.295Z,2.60
2022-12-22T04:43:31.410Z,2.60
2022-12-22T04:45:59.215Z,2.60
2022-12-22T04:48:27.322Z,2.70
2022-12-22T04:50:55.637Z,2.70
2022-12-22T04:53:23.313Z,2.70
2022-12-22T04:55:51.457Z,2.70
2022-12-22T04:58:18.299Z,2.70
2022-12-22T05:00:45.459Z,2.60
2022-12-22T05:03:12.687Z,2.60
2022-12-22T05:05:39.573Z,2.60
2022-12-22T05:08:06.656Z,2.50
2022-12-22T05:10:33.686Z,2.50
2022-12-22T05:13:00.590Z,2.40
2022-12-22T05:15:31.681Z,2.40
2022-12-22T05:17:58.978Z,2.40
2022-12-22T05:20:26.059Z,2.40
2022-12-22T05:22:53.127Z,2.40
2022-12-22T05:25:20.501Z,2.40
2022-12-22T05:27:48.858Z,2.40
2022-12-22T05:30:16.440Z,2.30
2022-12-22T05:32:43.480Z,2.30
2022-12-22T05:35:10.842Z,2.40
2022-12-22T05:37:37.841Z,2.40
2022-12-22T05:40:05.662Z,2.40
2022-12-22T05:42:38.451Z,2.40
2022-12-22T05:45:16.155Z,2.40
2022-12-22T05:47:43.913Z,2.40
2022-12-22T05:50:12.051Z,2.40
2022-12-22T05:52:39.416Z,2.40
2022-12-22T05:55:06.604Z,2.50
2022-12-22T05:57:33.505Z,2.50
2022-12-22T06:00:02.566Z,2.50
2022-12-22T06:02:29.577Z,2.60
2022-12-22T06:04:56.653Z,2.60
2022-12-22T06:07:23.731Z,2.60
2022-12-22T06:09:50.625Z,2.60
2022-12-22T06:12:17.550Z,2.60
2022-12-22T06:14:44.513Z,2.60
2022-12-22T06:17:11.400Z,2.70
2022-12-22T06:19:38.386Z,2.70
2022-12-22T06:22:05.264Z,2.80
2022-12-22T06:24:32.105Z,2.80
2022-12-22T06:26:58.976Z,2.90
2022-12-22T06:29:26.117Z,2.90
2022-12-22T06:31:53.079Z,2.90
2022-12-22T06:34:19.995Z,2.90
2022-12-22T06:36:47.238Z,2.90
2022-12-22T06:39:14.927Z,3.00
2022-12-22T06:42:00.822Z,3.00
2022-12-22T06:44:27.927Z,3.00
2022-12-22T06:46:55.368Z,3.10
2022-12-22T06:49:22.708Z,3.10
2022-12-22T06:51:49.755Z,3.10
2022-12-22T06:54:19.568Z,3.10
2022-12-22T06:56:51.218Z,3.10
2022-12-22T06:59:18.069Z,3.20
2022-12-22T07:01:45.077Z,3.10
2022-12-22T07:04:12.168Z,3.20
2022-12-22T07:06:39.247Z,3.20
2022-12-22T07:09:06.322Z,3.20
2022-12-22T07:11:33.157Z,3.20
2022-12-22T07:14:00.136Z,3.20
2022-12-22T07:16:27.134Z,3.30
2022-12-22T07:18:53.996Z,3.30
2022-12-22T07:21:20.900Z,3.30
2022-12-22T07:23:47.783Z,3.30
2022-12-22T07:26:14.961Z,3.30
2022-12-22T07:28:42.268Z,3.20
2022-12-22T07:31:10.367Z,3.20
2022-12-22T07:33:37.567Z,3.20
2022-12-22T07:36:04.424Z,3.30
2022-12-22T07:38:35.702Z,3.30
2022-12-22T07:41:05.559Z,3.30
2022-12-22T07:43:32.615Z,3.30
2022-12-22T07:45:59.506Z,3.30
2022-12-22T07:48:45.132Z,3.30
2022-12-22T07:51:11.913Z,3.30
2022-12-22T07:53:40.360Z,3.40
2022-12-22T07:56:07.370Z,3.40
2022-12-22T07:58:36.197Z,3.50
2022-12-22T08:01:03.090Z,3.50
2022-12-22T08:03:29.960Z,3.50
2022-12-22T08:05:56.780Z,3.60
2022-12-22T08:08:23.777Z,3.60
2022-12-22T08:10:50.562Z,3.60
2022-12-22T08:13:17.809Z,3.60
2022-12-22T08:15:44.948Z,3.60
2022-12-22T08:18:11.792Z,3.60
2022-12-22T08:20:38.739Z,3.60
2022-12-22T08:23:06.790Z,3.60
2022-12-22T08:25:34.195Z,3.60
2022-12-22T08:28:02.249Z,3.70
2022-12-22T08:30:29.569Z,3.60
2022-12-22T08:32:56.577Z,3.60
2022-12-22T08:35:23.627Z,3.70
2022-12-22T08:37:51.178Z,3.70
2022-12-22T08:40:28.688Z,3.80
2022-12-22T08:43:00.756Z,3.80
2022-12-22T08:45:27.704Z,3.80
2022-12-22T08:47:54.519Z,3.80
2022-12-22T08:50:21.428Z,3.80
2022-12-22T08:52:48.378Z,3.80
2022-12-22T08:55:15.398Z,3.80
2022-12-22T08:57:42.630Z,3.70
2022-12-22T09:00:10.715Z,3.70
2022-12-22T09:02:39.652Z,3.70
2022-12-22T09:05:06.762Z,3.70
2022-12-22T09:07:33.785Z,3.70
2022-12-22T09:10:00.915Z,3.70
2022-12-22T09:12:27.939Z,3.70
2022-12-22T09:14:54.813Z,3.70
2022-12-22T09:17:21.791Z,3.70
2022-12-22T09:19:48.653Z,3.70
2022-12-22T09:22:15.645Z,3.70
2022-12-22T09:24:42.566Z,3.60
2022-12-22T09:27:10.681Z,3.70
2022-12-22T09:29:37.798Z,3.70
2022-12-22T09:32:04.851Z,3.60
2022-12-22T09:34:32.222Z,3.70
2022-12-22T09:36:59.124Z,3.70
2022-12-22T09:39:29.231Z,3.60
2022-12-22T09:41:58.197Z,3.70
2022-12-22T09:44:32.212Z,3.70
2022-12-22T09:47:04.503Z,3.70
2022-12-22T09:49:31.354Z,3.60
2022-12-22T09:52:00.136Z,3.60
2022-12-22T09:54:27.799Z,3.60
2022-12-22T09:56:54.850Z,3.60
2022-12-22T09:59:22.332Z,3.60
2022-12-22T10:01:52.328Z,3.70
2022-12-22T10:04:31.487Z,3.60
2022-12-22T10:06:58.434Z,3.60
2022-12-22T10:09:48.799Z,3.70
2022-12-22T10:12:18.602Z,3.70
2022-12-22T10:14:47.108Z,3.70
2022-12-22T10:17:14.838Z,3.60
2022-12-22T10:19:42.533Z,3.60
2022-12-22T10:22:30.091Z,3.60
2022-12-22T10:24:57.506Z,3.60
2022-12-22T10:27:29.006Z,3.60
2022-12-22T10:30:16.468Z,3.60
2022-12-22T10:32:43.371Z,3.60
2022-12-22T10:35:10.556Z,3.60
2022-12-22T10:37:38.899Z,3.60
2022-12-22T10:40:16.425Z,3.60
2022-12-22T10:42:48.140Z,3.60
2022-12-22T10:45:19.938Z,3.70
2022-12-22T10:47:48.914Z,3.70
2022-12-22T10:50:16.023Z,3.70
2022-12-22T10:52:52.068Z,3.70
2022-12-22T10:55:25.864Z,3.70
2022-12-22T10:58:06.759Z,3.70
2022-12-22T11:00:33.600Z,3.70
2022-12-22T11:03:01.782Z,3.70
2022-12-22T11:05:29.535Z,3.70
2022-12-22T11:07:57.554Z,3.80
2022-12-22T11:10:31.644Z,3.80
2022-12-22T11:13:09.993Z,3.80
2022-12-22T11:15:37.061Z,3.80
2022-12-22T11:18:13.934Z,3.80
2022-12-22T11:20:52.979Z,3.80
2022-12-22T11:23:25.571Z,3.90
2022-12-22T11:25:59.085Z,3.90
2022-12-22T11:28:34.595Z,4.00
2022-12-22T11:31:01.571Z,3.90
2022-12-22T11:33:45.825Z,4.00
2022-12-22T11:36:18.613Z,3.90
2022-12-22T11:38:46.980Z,3.90
2022-12-22T11:41:14.093Z,3.90
2022-12-22T11:43:47.421Z,3.90
2022-12-22T11:46:19.345Z,3.90
2022-12-22T11:49:04.891Z,3.90
2022-12-22T11:51:34.748Z,4.00
2022-12-22T11:54:10.591Z,4.00
2022-12-22T11:56:42.805Z,4.00
2022-12-22T11:59:15.865Z,4.00
2022-12-22T12:02:01.857Z,4.10
2022-12-22T12:04:31.938Z,4.10
2022-12-22T12:07:25.682Z,4.10
2022-12-22T12:10:02.806Z,4.10
2022-12-22T12:12:43.038Z,4.00
2022-12-22T12:15:19.433Z,4.00
2022-12-22T12:17:52.528Z,4.10
2022-12-22T12:20:22.154Z,4.10
2022-12-22T12:22:57.984Z,4.10
2022-12-22T12:26:03.144Z,4.10
2022-12-22T12:28:37.241Z,4.10
2022-12-22T12:31:05.145Z,4.10
2022-12-22T12:33:31.980Z,4.10
2022-12-22T12:36:17.537Z,4.10
2022-12-22T12:39:09.644Z,4.10
2022-12-22T12:41:53.314Z,4.10
2022-12-22T12:44:22.542Z,4.10
2022-12-22T12:46:52.623Z,4.10
2022-12-22T12:49:34.759Z,4.00
2022-12-22T12:52:02.974Z,4.10
2022-12-22T12:54:30.132Z,4.10
2022-12-22T12:57:12.228Z,4.10
2022-12-22T12:59:42.198Z,4.00
2022-12-22T13:02:24.671Z,4.00
2022-12-22T13:05:11.733Z,4.10
2022-12-22T13:07:57.252Z,4.10
2022-12-22T13:10:25.633Z,4.10
2022-12-22T13:12:53.969Z,4.20
2022-12-22T13:15:27.653Z,4.20
2022-12-22T13:17:54.916Z,4.20
2022-12-22T13:20:25.430Z,4.20
2022-12-22T13:22:53.715Z,4.20
2022-12-22T13:25:21.204Z,4.10
2022-12-22T13:27:48.915Z,4.10
2022-12-22T13:30:17.117Z,4.20
2022-12-22T13:32:46.338Z,4.20
2022-12-22T13:35:38.618Z,4.20
2022-12-22T13:38:05.886Z,4.20
2022-12-22T13:40:40.768Z,4.30
2022-12-22T13:43:15.348Z,4.30
2022-12-22T13:45:49.730Z,4.30
2022-12-22T13:48:21.384Z,4.30
2022-12-22T13:50:50.080Z,4.30
2022-12-22T13:53:42.238Z,4.30
2022-12-22T13:56:14.888Z,4.30
2022-12-22T13:58:45.415Z,4.30
2022-12-22T14:01:12.295Z,4.30
2022-12-22T14:03:59.429Z,4.30
2022-12-22T14:06:28.401Z,4.30
2022-12-22T14:09:09.566Z,4.30
2022-12-22T14:11:36.559Z,4.40
2022-12-22T14:14:07.409Z,4.30
2022-12-22T14:16:34.451Z,4.30
2022-12-22T14:19:01.387Z,4.30
2022-12-22T14:21:28.373Z,4.30
2022-12-22T14:23:55.314Z,4.30
2022-12-22T14:26:24.708Z,4.30
2022-12-22T14:28:53.386Z,4.30
2022-12-22T14:31:20.621Z,4.40
2022-12-22T14:33:51.478Z,4.40
2022-12-22T14:36:22.040Z,4.40
2022-12-22T14:38:50.597Z,4.40
2022-12-22T14:41:46.263Z,4.40
2022-12-22T14:44:14.572Z,4.40
2022-12-22T14:46:42.301Z,4.40
2022-12-22T14:49:13.905Z,4.40
2022-12-22T14:51:41.305Z,4.30
2022-12-22T14:54:18.023Z,4.30
2022-12-22T14:56:49.234Z,4.40
2022-12-22T14:59:24.391Z,4.30
2022-12-22T15:02:19.409Z,4.40
2022-12-22T15:04:46.388Z,4.40
2022-12-22T15:07:45.863Z,4.30
2022-12-22T15:10:19.401Z,4.30
2022-12-22T15:12:47.646Z,4.30
2022-12-22T15:15:16.110Z,4.30
2022-12-22T15:17:48.979Z,4.30
2022-12-22T15:20:17.935Z,4.30
2022-12-22T15:22:44.865Z,4.30
2022-12-22T15:25:12.697Z,4.30
2022-12-22T15:27:39.935Z,4.30
2022-12-22T15:30:07.283Z,4.40
2022-12-22T15:32:37.818Z,4.40
2022-12-22T15:35:11.146Z,4.30
2022-12-22T15:37:38.228Z,4.40
2022-12-22T15:40:06.871Z,4.30
2022-12-22T15:42:34.196Z,4.40
2022-12-22T15:45:01.145Z,4.30
2022-12-22T15:47:28.816Z,4.30
2022-12-22T15:49:55.647Z,4.30
2022-12-22T15:52:22.544Z,4.30
2022-12-22T15:54:49.637Z,4.30
2022-12-22T15:57:16.566Z,4.40
2022-12-22T15:59:43.479Z,4.40
2022-12-22T16:02:17.928Z,4.30
2022-12-22T16:04:44.876Z,4.40
2022-12-22T16:07:16.781Z,4.40
2022-12-22T16:09:46.174Z,4.40
2022-12-22T16:12:14.165Z,4.40
2022-12-22T16:14:46.593Z,4.40
2022-12-22T16:17:22.321Z,4.40
2022-12-22T16:19:49.194Z,4.40
2022-12-22T16:22:17.896Z,4.40
2022-12-22T16:24:46.591Z,4.30
2022-12-22T16:27:14.168Z,4.30
2022-12-22T16:29:43.234Z,4.30
2022-12-22T16:32:18.288Z,4.30
2022-12-22T16:34:45.326Z,4.30
2022-12-22T16:37:12.268Z,4.30
2022-12-22T16:39:43.331Z,4.30
2022-12-22T16:45:00.129Z,4.30
2022-12-22T16:47:28.474Z,4.20
2022-12-22T16:49:55.977Z,4.20
2022-12-22T16:52:28.678Z,4.20
2022-12-22T16:54:55.539Z,4.20
2022-12-22T16:57:22.367Z,4.20
2022-12-22T16:59:50.300Z,4.30
2022-12-22T17:02:20.727Z,4.30
2022-12-22T17:04:47.847Z,4.30
2022-12-22T17:07:14.774Z,4.20
2022-12-22T17:09:45.302Z,4.20
2022-12-22T17:12:21.035Z,4.20
2022-12-22T17:14:48.342Z,4.20
2022-12-22T17:17:16.715Z,4.20
2022-12-22T17:19:44.038Z,4.20
2022-12-22T17:22:31.099Z,4.30
2022-12-22T17:25:00.494Z,4.30
2022-12-22T17:27:28.608Z,4.20
2022-12-22T17:29:56.135Z,4.20
2022-12-22T17:32:23.090Z,4.20
2022-12-22T17:34:49.993Z,4.20
2022-12-22T17:37:18.784Z,4.20
2022-12-22T17:39:47.566Z,4.20
2022-12-22T17:42:18.667Z,4.30
2022-12-22T17:44:45.883Z,4.20
2022-12-22T17:47:17.913Z,4.30
2022-12-22T17:49:45.216Z,4.30
2022-12-22T17:52:17.923Z,4.30
2022-12-22T17:54:46.553Z,4.30
2022-12-22T17:57:19.580Z,4.30
2022-12-22T17:59:46.576Z,4.30
2022-12-22T18:02:20.759Z,4.30
2022-12-22T18:04:48.258Z,4.20
2022-12-22T18:07:16.606Z,4.20
2022-12-22T18:09:45.533Z,4.20
2022-12-22T18:12:22.965Z,4.10
2022-12-22T18:14:49.873Z,4.10
2022-12-22T18:17:26.215Z,4.10
2022-12-22T18:19:55.502Z,4.10
2022-12-22T18:22:23.845Z,4.10
2022-12-22T18:24:51.320Z,4.10
2022-12-22T18:27:19.277Z,4.20
2022-12-22T18:29:47.312Z,4.20
2022-12-22T18:32:18.776Z,4.20
2022-12-22T18:34:52.233Z,4.20
2022-12-22T18:37:19.447Z,4.20
2022-12-22T18:39:46.443Z,4.20
2022-12-22T18:42:21.278Z,4.10
2022-12-22T18:44:48.837Z,4.10
2022-12-22T18:47:16.130Z,4.10
2022-12-22T18:49:43.609Z,4.00
2022-12-22T18:52:16.879Z,4.00
2022-12-22T18:54:44.350Z,4.10
2022-12-22T18:57:16.532Z,4.10
2022-12-22T18:59:44.763Z,4.10
2022-12-22T19:02:21.402Z,4.10
2022-12-22T19:04:49.526Z,4.10
2022-12-22T19:07:17.775Z,4.00
2022-12-22T19:09:45.148Z,4.10
2022-12-22T19:12:19.646Z,4.00
2022-12-22T19:14:48.510Z,4.00
2022-12-22T19:17:18.266Z,4.00
2022-12-22T19:19:45.142Z,4.00
2022-12-22T19:22:13.735Z,4.00
2022-12-22T19:24:42.152Z,4.00
2022-12-22T19:27:16.625Z,4.00
2022-12-22T19:29:43.631Z,4.00
2022-12-22T19:32:24.203Z,4.00
2022-12-22T19:34:51.609Z,4.00
2022-12-22T19:37:19.188Z,3.90
2022-12-22T19:39:46.328Z,3.90
2022-12-22T19:42:19.913Z,3.90
2022-12-22T19:44:47.605Z,3.90
2022-12-22T19:47:20.079Z,3.80
2022-12-22T19:49:48.625Z,3.80
2022-12-22T19:52:15.667Z,3.80
2022-12-22T19:54:42.476Z,3.80
2022-12-22T19:57:15.858Z,3.80
2022-12-22T19:59:44.625Z,3.90
2022-12-22T20:02:20.598Z,3.80
2022-12-22T20:04:48.202Z,3.80
2022-12-22T20:07:19.781Z,3.90
2022-12-22T20:09:47.147Z,3.90
2022-12-22T20:12:17.295Z,3.90
2022-12-22T20:14:44.207Z,3.90
2022-12-22T20:17:11.372Z,3.90
2022-12-22T20:19:38.296Z,3.90
2022-12-22T20:22:05.355Z,3.90
2022-12-22T20:24:32.368Z,3.90
2022-12-22T20:26:59.799Z,3.90
2022-12-22T20:29:26.641Z,3.90
2022-12-22T20:31:53.546Z,3.90
2022-12-22T20:34:24.713Z,3.90
2022-12-22T20:36:55.820Z,3.80
2022-12-22T20:39:23.122Z,3.80
2022-12-22T20:41:53.734Z,3.80
2022-12-22T20:44:20.932Z,3.80
2022-12-22T20:46:48.335Z,3.90
2022-12-22T20:49:16.284Z,3.90
2022-12-22T20:51:43.743Z,3.90
2022-12-22T20:54:13.839Z,3.90
2022-12-22T20:56:40.963Z,3.90
2022-12-22T20:59:19.422Z,3.80
2022-12-22T21:01:51.501Z,3.90
2022-12-22T21:07:00.258Z,3.80
2022-12-22T21:09:27.973Z,3.80
2022-12-22T21:11:55.024Z,3.80
2022-12-22T21:14:21.929Z,3.80
2022-12-22T21:16:49.007Z,3.80
2022-12-22T21:19:18.218Z,3.70
2022-12-22T21:21:45.306Z,3.80
2022-12-22T21:24:12.451Z,3.80
2022-12-22T21:26:42.312Z,3.80
2022-12-22T21:29:12.572Z,3.80
2022-12-22T21:31:39.421Z,3.70
2022-12-22T21:34:06.300Z,3.70
2022-12-22T21:36:34.240Z,3.80
2022-12-22T21:39:03.028Z,3.80
2022-12-22T21:41:48.375Z,3.80
2022-12-22T21:44:15.890Z,3.80
2022-12-22T21:46:44.451Z,3.80
2022-12-22T21:49:20.050Z,3.80
2022-12-22T21:51:47.672Z,3.80
2022-12-22T21:54:14.660Z,3.80
2022-12-22T21:56:41.510Z,3.80
2022-12-22T21:59:08.444Z,3.80
2022-12-22T22:01:35.530Z,3.80
2022-12-22T22:04:02.522Z,3.70
2022-12-22T22:06:29.464Z,3.80
2022-12-22T22:08:56.341Z,3.70
2022-12-22T22:11:24.950Z,3.70
2022-12-22T22:13:52.586Z,3.80
2022-12-22T22:16:19.556Z,3.70
2022-12-22T22:18:48.674Z,3.70
2022-12-22T22:21:16.147Z,3.80
2022-12-22T22:23:43.699Z,3.70
2022-12-22T22:26:10.910Z,3.80
2022-12-22T22:28:37.856Z,3.80
2022-12-22T22:31:11.319Z,3.80
2022-12-22T22:33:38.420Z,3.80
2022-12-22T22:36:06.392Z,3.80
2022-12-22T22:38:35.325Z,3.80
2022-12-22T22:41:02.240Z,3.80
2022-12-22T22:43:29.202Z,3.80
2022-12-22T22:45:56.319Z,3.70
2022-12-22T22:48:23.760Z,3.70
2022-12-22T22:50:50.893Z,3.60
2022-12-22T22:53:17.828Z,3.70
2022-12-22T22:55:44.700Z,3.60
2022-12-22T22:58:11.816Z,3.70
2022-12-22T23:00:39.301Z,3.70
2022-12-22T23:03:06.774Z,3.70
2022-12-22T23:05:34.078Z,3.70
2022-12-22T23:08:00.912Z,3.70
2022-12-22T23:10:27.796Z,3.70
2022-12-22T23:12:54.805Z,3.70
2022-12-22T23:15:21.745Z,3.70
2022-12-22T23:17:50.483Z,3.70
2022-12-22T23:20:17.342Z,3.70
2022-12-22T23:22:44.251Z,3.70
2022-12-22T23:25:11.282Z,3.70
2022-12-22T23:27:38.248Z,3.70
2022-12-22T23:30:05.467Z,3.80
2022-12-22T23:32:32.318Z,3.80
2022-12-22T23:34:59.278Z,3.80
2022-12-22T23:37:26.508Z,3.90
2022-12-22T23:39:53.354Z,3.90
2022-12-22T23:42:20.205Z,3.90
2022-12-22T23:44:48.044Z,3.90
2022-12-22T23:47:14.936Z,3.90
2022-12-22T23:49:41.822Z,3.90
2022-12-22T23:52:08.685Z,3.90
2022-12-22T23:54:35.519Z,3.90
2022-12-22T23:57:02.433Z,3.90
2022-12-22T23:59:29.293Z,3.90
